Adel, Oregon
Current Conditions -  °F | °C
As of 5:35 PM on Saturday 22 Nov 2014 (Local Time) from KLKV Reporting Station
Clear Clear  
Wind Chill: 24°   Ceiling: Unl
Heat Index: 34°   Visibility: 10mi
Dew Point: 27°   Wind: 14mph
Humidity: 75%   Direction: 290°WNW
Pressure: 30.1"   Gusts: NA
Location:  42.18°N, 119.9°W
Report Text: KLKV 230135Z 29012KT 10SM CLR 01/M03 A3010 RMK AO1
Loading
Personal Weather Stations






























Interactive Weather Map New forecast layout! Learn more

10-Day Weather Forecast

Advertisements
Track Severe Weather on mobile